Time;durP1;ratioP1;P1;durP2;ratioP2;P2;SDS_P1;SDS_P2;PMS_P1;PMS_P2;Temp;Humidity;BMP_temperature;BMP_pressure;BME280_temperature;BME280_humidity;BME280_pressure;Samples;Min_cycle;Max_cycle;Signal;HPM_P1;HPM_P2
2023/03/10 00:02:02;;;;;;;;;;;;;;;;;;5113062;28;1040;-70
2023/03/10 00:04:27;;;;;;;;;;;;;;;;;;5113590;28;1910;-70
2023/03/10 00:06:53;;;;;;;;;;;;;;;;;;5113570;28;887;-70
2023/03/10 00:09:18;;;;;;;;;;;;;;;;;;5095238;28;1253;-70
2023/03/10 00:11:43;;;;;;;;;;;;;;;;;;5095113;28;1057;-70
2023/03/10 00:14:08;;;;;;;;;;;;;;;;;;5111444;28;1162;-69
2023/03/10 00:16:34;;;;;;;;;;;;;;;;;;5112053;28;1282;-70
2023/03/10 00:18:59;;;;;;;;;;;;;;;;;;5111648;28;1197;-69
2023/03/10 00:21:26;;;;;;;;;;;;;;;;;;5112332;28;825;-70
2023/03/10 00:23:52;;;;;;;;;;;;;;;;;;5113147;28;1898;-70
2023/03/10 00:26:18;;;;;;;;;;;;;;;;;;5113660;28;827;-71
2023/03/10 00:28:43;;;;;;;;;;;;;;;;;;5113090;28;781;-70
2023/03/10 00:31:19;;;;;;;;;;;;;;;;;;5111698;28;1341;-70
2023/03/10 00:33:44;;;;;;;;;;;;;;;;;;5111737;28;1229;-70
2023/03/10 00:36:17;;;;;;;;;;;;;;;;;;5113175;28;903;-70
2023/03/10 00:38:43;;;;;;;;;;;;;;;;;;5111957;28;1232;-70
2023/03/10 00:41:13;;;;;;;;;;;;;;;;;;5111574;28;1190;-70
2023/03/10 00:43:38;;;;;;;;;;;;;;;;;;5113806;28;1949;-70
2023/03/10 00:46:04;;;;;;;;;;;;;;;;;;5112877;28;899;-70
2023/03/10 00:48:29;;;;;;;;;;;;;;;;;;5113227;28;1062;-70
2023/03/10 00:50:54;;;;;;;;;;;;;;;;;;5112265;28;1053;-70
2023/03/10 00:53:20;;;;;;;;;;;;;;;;;;5112355;27;1078;-70
2023/03/10 00:55:58;;;;;;;;;;;;;;;;;;5111358;28;1284;-70
2023/03/10 00:58:24;;;;;;;;;;;;;;;;;;5112788;28;872;-70
2023/03/10 01:00:49;;;;;;;;;;;;;;;;;;5112831;28;981;-70
2023/03/10 01:03:14;;;;;;;;;;;;;;;;;;5110791;28;1901;-70
2023/03/10 01:05:40;;;;;;;;;;;;;;;;;;5111379;28;915;-70
2023/03/10 01:08:05;;;;;;;;;;;;;;;;;;5112485;28;828;-70
2023/03/10 01:10:30;;;;;;;;;;;;;;;;;;5112581;28;1061;-70
2023/03/10 01:12:55;;;;;;;;;;;;;;;;;;5111179;28;1407;-70
2023/03/10 01:15:21;;;;;;;;;;;;;;;;;;5112607;28;931;-70
2023/03/10 01:17:46;;;;;;;;;;;;;;;;;;5111261;28;939;-70
2023/03/10 01:20:14;;;;;;;;;;;;;;;;;;5111063;28;1142;-70
2023/03/10 01:22:39;;;;;;;;;;;;;;;;;;5111294;28;1307;-70
2023/03/10 01:25:05;;;;;;;;;;;;;;;;;;5110851;28;1977;-70
2023/03/10 01:27:30;;;;;;;;;;;;;;;;;;5112675;28;1006;-70
2023/03/10 01:29:55;;;;;;;;;;;;;;;;;;5093572;28;1194;-70
2023/03/10 01:32:20;;;;;;;;;;;;;;;;;;5112244;28;879;-70
2023/03/10 01:34:46;;;;;;;;;;;;;;;;;;5111304;28;892;-70
2023/03/10 01:37:11;;;;;;;;;;;;;;;;;;5110556;28;1335;-70
2023/03/10 01:39:36;;;;;;;;;;;;;;;;;;5111040;28;942;-70
2023/03/10 01:42:02;;;;;;;;;;;;;;;;;;5110556;28;1296;-70
2023/03/10 01:44:27;;;;;;;;;;;;;;;;;;5111042;28;1975;-70
2023/03/10 01:46:53;;;;;;;;;;;;;;;;;;5112235;28;927;-70
2023/03/10 01:49:39;;;;;;;;;;;;;;;;;;5112418;28;1388;-70
2023/03/10 01:52:16;;;;;;;;;;;;;;;;;;5113027;28;953;-70
2023/03/10 01:54:45;;;;;;;;;;;;;;;;;;5112407;28;852;-70
2023/03/10 01:57:12;;;;;;;;;;;;;;;;;;5112259;28;804;-70
2023/03/10 01:59:38;;;;;;;;;;;;;;;;;;5116741;28;769;-69
2023/03/10 02:02:03;;;;;;;;;;;;;;;;;;5116112;28;1076;-70
2023/03/10 02:04:32;;;;;;;;;;;;;;;;;;5115087;28;1972;-70
2023/03/10 02:06:58;;;;;;;;;;;;;;;;;;5114636;28;1343;-70
2023/03/10 02:09:23;;;;;;;;;;;;;;;;;;5116238;28;868;-70
2023/03/10 02:11:49;;;;;;;;;;;;;;;;;;5114358;28;951;-70
2023/03/10 02:14:15;;;;;;;;;;;;;;;;;;5114691;28;860;-70
2023/03/10 02:16:40;;;;;;;;;;;;;;;;;;5114648;28;1146;-70
2023/03/10 02:19:10;;;;;;;;;;;;;;;;;;5096652;28;1149;-70
2023/03/10 02:21:53;;;;;;;;;;;;;;;;;;5115774;28;911;-70
2023/03/10 02:24:31;;;;;;;;;;;;;;;;;;5115400;28;1921;-70
2023/03/10 02:27:00;;;;;;;;;;;;;;;;;;5115465;28;864;-70
2023/03/10 02:29:29;;;;;;;;;;;;;;;;;;5114087;28;1170;-70
2023/03/10 02:31:55;;;;;;;;;;;;;;;;;;5114953;28;903;-70
2023/03/10 02:34:21;;;;;;;;;;;;;;;;;;5113953;28;1463;-70
2023/03/10 02:36:46;;;;;;;;;;;;;;;;;;5115207;28;922;-70
2023/03/10 02:39:11;;;;;;;;;;;;;;;;;;5114838;28;844;-69
2023/03/10 02:41:38;;;;;;;;;;;;;;;;;;5114298;28;832;-70
2023/03/10 02:44:06;;;;;;;;;;;;;;;;;;5113498;28;1930;-70
2023/03/10 02:46:32;;;;;;;;;;;;;;;;;;5115246;28;918;-70
2023/03/10 02:49:01;;;;;;;;;;;;;;;;;;5115316;28;922;-70
2023/03/10 02:51:31;;;;;;;;;;;;;;;;;;5114966;28;936;-70
2023/03/10 02:53:56;;;;;;;;;;;;;;;;;;5115182;28;935;-70
2023/03/10 02:56:22;;;;;;;;;;;;;;;;;;5096652;28;1150;-70
2023/03/10 02:58:47;;;;;;;;;;;;;;;;;;5113789;28;1333;-70
2023/03/10 03:01:12;;;;;;;;;;;;;;;;;;5115450;28;1099;-70
2023/03/10 03:03:37;;;;;;;;;;;;;;;;;;5113509;28;1971;-70
2023/03/10 03:06:03;;;;;;;;;;;;;;;;;;5113799;28;899;-70
2023/03/10 03:08:28;;;;;;;;;;;;;;;;;;5096020;28;1193;-70
2023/03/10 03:10:54;;;;;;;;;;;;;;;;;;5114211;28;776;-70
2023/03/10 03:13:19;;;;;;;;;;;;;;;;;;5107179;28;1139;-70
2023/03/10 03:15:45;;;;;;;;;;;;;;;;;;5092053;28;1195;-71
2023/03/10 03:18:10;;;;;;;;;;;;;;;;;;5109065;28;1215;-70
2023/03/10 03:20:36;;;;;;;;;;;;;;;;;;5114093;28;1252;-70
2023/03/10 03:23:02;;;;;;;;;;;;;;;;;;5113340;28;1109;-70
2023/03/10 03:25:29;;;;;;;;;;;;;;;;;;5114615;28;1886;-71
2023/03/10 03:27:54;;;;;;;;;;;;;;;;;;5113633;28;1257;-70
2023/03/10 03:30:21;;;;;;;;;;;;;;;;;;5114653;28;816;-70
2023/03/10 03:32:47;;;;;;;;;;;;;;;;;;5114756;28;1003;-70
2023/03/10 03:35:17;;;;;;;;;;;;;;;;;;5112750;28;1300;-70
2023/03/10 03:37:42;;;;;;;;;;;;;;;;;;5113037;28;1197;-70
2023/03/10 03:40:14;;;;;;;;;;;;;;;;;;5113726;28;890;-70
2023/03/10 03:42:40;;;;;;;;;;;;;;;;;;5112821;28;844;-71
2023/03/10 03:45:06;;;;;;;;;;;;;;;;;;5112098;28;1905;-70
2023/03/10 03:47:32;;;;;;;;;;;;;;;;;;5112404;28;1309;-70
2023/03/10 03:49:57;;;;;;;;;;;;;;;;;;5112214;28;1244;-70
2023/03/10 03:52:23;;;;;;;;;;;;;;;;;;5112428;28;1147;-70
2023/03/10 03:54:48;;;;;;;;;;;;;;;;;;5113166;28;904;-70
2023/03/10 03:57:13;;;;;;;;;;;;;;;;;;5112307;28;1161;-70
2023/03/10 03:59:38;;;;;;;;;;;;;;;;;;5113458;28;990;-70
2023/03/10 04:02:04;;;;;;;;;;;;;;;;;;5112289;28;1546;-70
2023/03/10 04:04:29;;;;;;;;;;;;;;;;;;5113670;27;1990;-70
2023/03/10 04:06:54;;;;;;;;;;;;;;;;;;5113170;28;891;-70
2023/03/10 04:09:19;;;;;;;;;;;;;;;;;;5112636;28;1038;-70
2023/03/10 04:11:45;;;;;;;;;;;;;;;;;;5112614;28;1132;-70
2023/03/10 04:14:10;;;;;;;;;;;;;;;;;;5113030;28;859;-70
2023/03/10 04:16:35;;;;;;;;;;;;;;;;;;5113349;28;868;-70
2023/03/10 04:19:00;;;;;;;;;;;;;;;;;;5113637;28;847;-70
2023/03/10 04:21:26;;;;;;;;;;;;;;;;;;5111380;28;896;-70
2023/03/10 04:23:51;;;;;;;;;;;;;;;;;;5111553;28;1918;-70
2023/03/10 04:26:16;;;;;;;;;;;;;;;;;;5111349;28;1157;-70
2023/03/10 04:28:42;;;;;;;;;;;;;;;;;;5112352;28;800;-70
2023/03/10 04:31:14;;;;;;;;;;;;;;;;;;5111606;28;1312;-70
2023/03/10 04:33:40;;;;;;;;;;;;;;;;;;5111898;28;1434;-70
2023/03/10 04:36:08;;;;;;;;;;;;;;;;;;5113707;28;831;-70
2023/03/10 04:38:34;;;;;;;;;;;;;;;;;;5112363;28;954;-70
2023/03/10 04:41:00;;;;;;;;;;;;;;;;;;5113525;28;870;-70
2023/03/10 04:43:25;;;;;;;;;;;;;;;;;;5113077;28;1893;-70
2023/03/10 04:45:50;;;;;;;;;;;;;;;;;;5111802;28;1142;-70
2023/03/10 04:48:16;;;;;;;;;;;;;;;;;;5112066;28;868;-70
2023/03/10 04:50:41;;;;;;;;;;;;;;;;;;5111988;28;1214;-70
2023/03/10 04:53:06;;;;;;;;;;;;;;;;;;5112910;27;1069;-70
2023/03/10 04:55:32;;;;;;;;;;;;;;;;;;5111895;28;1320;-70
2023/03/10 04:57:57;;;;;;;;;;;;;;;;;;5112700;27;1029;-70
2023/03/10 05:00:23;;;;;;;;;;;;;;;;;;5111099;28;1268;-70
2023/03/10 05:02:48;;;;;;;;;;;;;;;;;;5113054;28;1211;-70
2023/03/10 05:05:13;;;;;;;;;;;;;;;;;;5112764;28;1917;-70
2023/03/10 05:07:39;;;;;;;;;;;;;;;;;;5112852;28;883;-70
2023/03/10 05:10:04;;;;;;;;;;;;;;;;;;5112714;28;966;-70
2023/03/10 05:12:29;;;;;;;;;;;;;;;;;;5112252;28;903;-70
2023/03/10 05:14:55;;;;;;;;;;;;;;;;;;5111315;28;1162;-70
2023/03/10 05:17:20;;;;;;;;;;;;;;;;;;5111273;28;873;-70
2023/03/10 05:19:45;;;;;;;;;;;;;;;;;;5111267;28;891;-70
2023/03/10 05:22:11;;;;;;;;;;;;;;;;;;5110757;28;1398;-70
2023/03/10 05:24:36;;;;;;;;;;;;;;;;;;5110674;28;1964;-70
2023/03/10 05:27:02;;;;;;;;;;;;;;;;;;5111600;28;1158;-69
2023/03/10 05:29:27;;;;;;;;;;;;;;;;;;5112263;28;1068;-70
2023/03/10 05:31:53;;;;;;;;;;;;;;;;;;5112505;28;851;-70
2023/03/10 05:34:18;;;;;;;;;;;;;;;;;;5116495;28;995;-70
2023/03/10 05:36:43;;;;;;;;;;;;;;;;;;5114896;28;1458;-70
2023/03/10 05:39:09;;;;;;;;;;;;;;;;;;5097734;28;1178;-70
2023/03/10 05:41:35;;;;;;;;;;;;;;;;;;5116524;28;872;-70
2023/03/10 05:44:01;;;;;;;;;;;;;;;;;;5116379;28;1901;-70
2023/03/10 05:46:26;;;;;;;;;;;;;;;;;;5103374;28;1193;-70
2023/03/10 05:48:51;;;;;;;;;;;;;;;;;;5109833;28;1246;-70
2023/03/10 05:51:17;;;;;;;;;;;;;;;;;;5112977;28;1195;-70
2023/03/10 05:53:42;;;;;;;;;;;;;;;;;;5098063;28;1284;-70
2023/03/10 05:56:11;;;;;;;;;;;;;;;;;;5116551;28;879;-70
2023/03/10 05:58:36;;;;;;;;;;;;;;;;;;5117020;28;911;-70
2023/03/10 06:01:02;;;;;;;;;;;;;;;;;;5115161;28;1292;-70
2023/03/10 06:03:28;;;;;;;;;;;;;;;;;;5114477;28;1951;-70
2023/03/10 06:05:54;;;;;;;;;;;;;;;;;;5098354;28;1226;-70
2023/03/10 06:08:19;;;;;;;;;;;;;;;;;;5115412;28;1313;-70
2023/03/10 06:10:44;;;;;;;;;;;;;;;;;;5116475;28;879;-70
2023/03/10 06:13:10;;;;;;;;;;;;;;;;;;5116394;28;907;-70
2023/03/10 06:15:35;;;;;;;;;;;;;;;;;;5116298;28;824;-70
2023/03/10 06:18:00;;;;;;;;;;;;;;;;;;5116236;28;922;-70
2023/03/10 06:20:26;;;;;;;;;;;;;;;;;;5115376;28;1183;-70
2023/03/10 06:22:52;;;;;;;;;;;;;;;;;;5116575;28;821;-70
2023/03/10 06:25:18;;;;;;;;;;;;;;;;;;5115524;28;1910;-70
2023/03/10 06:27:43;;;;;;;;;;;;;;;;;;5116422;27;780;-70
2023/03/10 06:30:08;;;;;;;;;;;;;;;;;;5110768;28;1155;-71
2023/03/10 06:32:34;;;;;;;;;;;;;;;;;;5094439;28;1392;-71
2023/03/10 06:34:59;;;;;;;;;;;;;;;;;;5096123;28;891;-71
2023/03/10 06:37:24;;;;;;;;;;;;;;;;;;5094938;28;867;-70
2023/03/10 06:39:50;;;;;;;;;;;;;;;;;;5095741;28;883;-70
2023/03/10 06:42:15;;;;;;;;;;;;;;;;;;5093825;28;1032;-71
2023/03/10 06:44:40;;;;;;;;;;;;;;;;;;5093547;28;1910;-71
2023/03/10 06:47:05;;;;;;;;;;;;;;;;;;5093435;28;1171;-71
2023/03/10 06:49:32;;;;;;;;;;;;;;;;;;5094876;28;813;-71
2023/03/10 06:51:57;;;;;;;;;;;;;;;;;;5094997;28;1029;-71
2023/03/10 06:54:23;;;;;;;;;;;;;;;;;;5095280;28;797;-71
2023/03/10 06:56:48;;;;;;;;;;;;;;;;;;5095368;28;861;-71
2023/03/10 06:59:14;;;;;;;;;;;;;;;;;;5093480;28;880;-71
2023/03/10 07:01:39;;;;;;;;;;;;;;;;;;5093113;28;1544;-71
2023/03/10 07:04:04;;;;;;;;;;;;;;;;;;5093389;28;1979;-71
2023/03/10 07:06:30;;;;;;;;;;;;;;;;;;5076303;28;1320;-71
2023/03/10 07:08:55;;;;;;;;;;;;;;;;;;5093221;28;1173;-71
2023/03/10 07:11:22;;;;;;;;;;;;;;;;;;5094828;28;903;-71
2023/03/10 07:13:47;;;;;;;;;;;;;;;;;;5095006;28;868;-70
2023/03/10 07:16:13;;;;;;;;;;;;;;;;;;5093390;28;982;-71
2023/03/10 07:18:38;;;;;;;;;;;;;;;;;;5093350;28;850;-71
2023/03/10 07:21:08;;;;;;;;;;;;;;;;;;5093370;28;1305;-71
2023/03/10 07:23:33;;;;;;;;;;;;;;;;;;5094419;28;1972;-71
2023/03/10 07:25:59;;;;;;;;;;;;;;;;;;5094407;28;859;-71
2023/03/10 07:28:25;;;;;;;;;;;;;;;;;;5094422;28;848;-71
2023/03/10 07:30:51;;;;;;;;;;;;;;;;;;5092517;28;1158;-72
2023/03/10 07:33:16;;;;;;;;;;;;;;;;;;5091390;28;1222;-72
2023/03/10 07:35:41;;;;;;;;;;;;;;;;;;5093749;28;828;-72
2023/03/10 07:38:07;;;;;;;;;;;;;;;;;;5093901;28;801;-72
2023/03/10 07:40:32;;;;;;;;;;;;;;;;;;5092582;28;1204;-72
2023/03/10 07:42:58;;;;;;;;;;;;;;;;;;5094473;28;837;-72
2023/03/10 07:45:24;;;;;;;;;;;;;;;;;;5093835;28;1910;-72
2023/03/10 07:47:50;;;;;;;;;;;;;;;;;;5092990;28;1174;-72
2023/03/10 07:50:15;;;;;;;;;;;;;;;;;;5092916;28;1273;-72
2023/03/10 07:52:41;;;;;;;;;;;;;;;;;;5091876;28;1252;-72
2023/03/10 07:55:06;;;;;;;;;;;;;;;;;;5093474;28;931;-72
2023/03/10 07:57:32;;;;;;;;;;;;;;;;;;5093000;28;1273;-72
2023/03/10 07:59:57;;;;;;;;;;;;;;;;;;5092653;28;952;-72
2023/03/10 08:02:22;;;;;;;;;;;;;;;;;;5092186;28;1328;-71
2023/03/10 08:04:48;;;;;;;;;;;;;;;;;;5075478;28;1909;-72
2023/03/10 08:07:13;;;;;;;;;;;;;;;;;;5093803;28;932;-72
2023/03/10 08:09:38;;;;;;;;;;;;;;;;;;5075767;28;1281;-71
2023/03/10 08:12:04;;;;;;;;;;;;;;;;;;5092071;28;1166;-72
2023/03/10 08:14:30;;;;;;;;;;;;;;;;;;5091880;28;1190;-71
2023/03/10 08:16:56;;;;;;;;;;;;;;;;;;5091948;28;1170;-72
2023/03/10 08:19:22;;;;;;;;;;;;;;;;;;5092055;28;1162;-72
2023/03/10 08:21:47;;;;;;;;;;;;;;;;;;5091454;28;1257;-71
2023/03/10 08:24:12;;;;;;;;;;;;;;;;;;5093241;28;1995;-72
2023/03/10 08:26:38;;;;;;;;;;;;;;;;;;5091419;28;848;-72
2023/03/10 08:29:03;;;;;;;;;;;;;;;;;;5091821;28;852;-71
2023/03/10 08:31:29;;;;;;;;;;;;;;;;;;5091458;28;1340;-72
2023/03/10 08:33:55;;;;;;;;;;;;;;;;;;5091541;28;1101;-72
2023/03/10 08:36:22;;;;;;;;;;;;;;;;;;5091433;28;1284;-72
2023/03/10 08:38:48;;;;;;;;;;;;;;;;;;5092621;28;777;-71
2023/03/10 08:41:16;;;;;;;;;;;;;;;;;;5092717;28;983;-72
2023/03/10 08:43:41;;;;;;;;;;;;;;;;;;5092320;28;1951;-72
2023/03/10 08:46:07;;;;;;;;;;;;;;;;;;5089515;28;1375;-71
2023/03/10 08:48:33;;;;;;;;;;;;;;;;;;5092022;28;931;-71
2023/03/10 08:50:58;;;;;;;;;;;;;;;;;;5091760;28;899;-72
2023/03/10 08:53:24;;;;;;;;;;;;;;;;;;5090611;28;1155;-72
2023/03/10 08:55:49;;;;;;;;;;;;;;;;;;5091055;28;1162;-72
2023/03/10 08:58:15;;;;;;;;;;;;;;;;;;5091078;28;1253;-72
2023/03/10 09:00:41;;;;;;;;;;;;;;;;;;5092468;28;804;-72
2023/03/10 09:03:07;;;;;;;;;;;;;;;;;;5092406;28;1321;-72
2023/03/10 09:05:36;;;;;;;;;;;;;;;;;;5093145;28;1906;-72
2023/03/10 09:08:01;;;;;;;;;;;;;;;;;;5091239;28;1319;-71
2023/03/10 09:10:27;;;;;;;;;;;;;;;;;;5091529;28;1459;-72
2023/03/10 09:12:52;;;;;;;;;;;;;;;;;;5092260;28;860;-72
2023/03/10 09:15:18;;;;;;;;;;;;;;;;;;5092669;28;962;-72
2023/03/10 09:17:44;;;;;;;;;;;;;;;;;;5091318;28;853;-72
2023/03/10 09:20:09;;;;;;;;;;;;;;;;;;5091046;28;860;-71
2023/03/10 09:22:34;;;;;;;;;;;;;;;;;;5092591;28;896;-71
2023/03/10 09:25:00;;;;;;;;;;;;;;;;;;5092487;28;1898;-71
2023/03/10 09:27:25;;;;;;;;;;;;;;;;;;5074450;28;1271;-72
2023/03/10 09:29:50;;;;;;;;;;;;;;;;;;5074364;28;1174;-72
2023/03/10 09:32:15;;;;;;;;;;;;;;;;;;5092496;28;896;-72
2023/03/10 09:34:41;;;;;;;;;;;;;;;;;;5093003;28;1207;-71
2023/03/10 09:37:06;;;;;;;;;;;;;;;;;;5110151;28;1304;-71
2023/03/10 09:39:32;;;;;;;;;;;;;;;;;;5105890;28;1319;-71
2023/03/10 09:42:16;;;;;;;;;;;;;;;;;;5092030;28;1223;-71
2023/03/10 09:44:52;;;;;;;;;;;;;;;;;;5092991;28;1886;-70
2023/03/10 09:47:22;;;;;;;;;;;;;;;;;;5092493;28;888;-70
2023/03/10 09:49:59;;;;;;;;;;;;;;;;;;5092332;28;822;-71
2023/03/10 09:52:32;;;;;;;;;;;;;;;;;;5093115;28;1066;-71
2023/03/10 09:55:00;;;;;;;;;;;;;;;;;;5093067;28;840;-71
2023/03/10 09:57:26;;;;;;;;;;;;;;;;;;5092892;28;806;-71
2023/03/10 09:59:54;;;;;;;;;;;;;;;;;;5092434;28;892;-71
2023/03/10 10:02:19;;;;;;;;;;;;;;;;;;5092276;28;1274;-71
2023/03/10 10:04:47;;;;;;;;;;;;;;;;;;5091010;28;1972;-71
2023/03/10 10:07:14;;;;;;;;;;;;;;;;;;5092054;28;891;-70
2023/03/10 10:09:46;;;;;;;;;;;;;;;;;;5092041;28;816;-70
2023/03/10 10:12:12;;;;;;;;;;;;;;;;;;5091967;28;855;-70
2023/03/10 10:14:37;;;;;;;;;;;;;;;;;;5090356;28;1186;-70
2023/03/10 10:17:13;;;;;;;;;;;;;;;;;;5090981;28;927;-71
2023/03/10 10:19:39;;;;;;;;;;;;;;;;;;5092669;28;1126;-70
2023/03/10 10:22:07;;;;;;;;;;;;;;;;;;5094441;28;841;-70
2023/03/10 10:24:32;;;;;;;;;;;;;;;;;;5095505;28;1893;-70
2023/03/10 10:26:58;;;;;;;;;;;;;;;;;;5077077;28;1329;-71
2023/03/10 10:29:25;;;;;;;;;;;;;;;;;;5094393;28;1190;-71
2023/03/10 10:32:03;;;;;;;;;;;;;;;;;;5095762;28;848;-71
2023/03/10 10:34:30;;;;;;;;;;;;;;;;;;5095510;28;888;-70
2023/03/10 10:36:55;;;;;;;;;;;;;;;;;;5095775;28;828;-71
2023/03/10 10:39:25;;;;;;;;;;;;;;;;;;5094907;28;1252;-71
2023/03/10 10:41:51;;;;;;;;;;;;;;;;;;5094942;28;1051;-70
2023/03/10 10:44:17;;;;;;;;;;;;;;;;;;5095703;28;1969;-70
2023/03/10 10:46:52;;;;;;;;;;;;;;;;;;5077466;28;1286;-71
2023/03/10 10:49:22;;;;;;;;;;;;;;;;;;5096450;28;895;-70
2023/03/10 10:52:04;;;;;;;;;;;;;;;;;;5093054;28;1280;-70
2023/03/10 10:54:42;;;;;;;;;;;;;;;;;;5095641;28;943;-71
2023/03/10 10:57:21;;;;;;;;;;;;;;;;;;5076681;28;1587;-70
2023/03/10 10:59:46;;;;;;;;;;;;;;;;;;5094675;28;1008;-70
2023/03/10 11:02:32;;;;;;;;;;;;;;;;;;5094290;28;1143;-70
2023/03/10 11:05:18;;;;;;;;;;;;;;;;;;5094379;28;1897;-70
2023/03/10 11:07:44;;;;;;;;;;;;;;;;;;5094262;28;888;-70
2023/03/10 11:10:14;;;;;;;;;;;;;;;;;;5076038;28;1140;-70
2023/03/10 11:12:58;;;;;;;;;;;;;;;;;;5093354;28;1186;-70
2023/03/10 11:15:32;;;;;;;;;;;;;;;;;;5097259;28;1184;-70
2023/03/10 11:18:02;;;;;;;;;;;;;;;;;;5100212;28;1175;-70
2023/03/10 11:20:36;;;;;;;;;;;;;;;;;;5102636;28;1230;-70
2023/03/10 11:23:08;;;;;;;;;;;;;;;;;;5114946;28;1158;-70
2023/03/10 11:25:44;;;;;;;;;;;;;;;;;;5113686;28;1906;-70
2023/03/10 11:28:16;;;;;;;;;;;;;;;;;;5114616;28;809;-70
2023/03/10 11:30:57;;;;;;;;;;;;;;;;;;5113701;28;621;-70
2023/03/10 11:33:33;;;;;;;;;;;;;;;;;;5114847;28;852;-70
2023/03/10 11:36:18;;;;;;;;;;;;;;;;;;5112701;28;1161;-70
2023/03/10 11:38:45;;;;;;;;;;;;;;;;;;5113829;28;1118;-70
2023/03/10 11:41:31;;;;;;;;;;;;;;;;;;5114230;27;844;-70
2023/03/10 11:44:06;;;;;;;;;;;;;;;;;;5111659;28;1965;-70
2023/03/10 11:46:34;;;;;;;;;;;;;;;;;;5115005;28;864;-70
2023/03/10 11:49:09;;;;;;;;;;;;;;;;;;5112656;28;1193;-70
2023/03/10 11:51:38;;;;;;;;;;;;;;;;;;5114592;28;922;-70
2023/03/10 11:54:24;;;;;;;;;;;;;;;;;;5114092;28;1084;-70
2023/03/10 11:56:50;;;;;;;;;;;;;;;;;;5114314;28;1014;-70
2023/03/10 11:59:21;;;;;;;;;;;;;;;;;;5113978;28;876;-70
2023/03/10 12:01:52;;;;;;;;;;;;;;;;;;5114053;28;1119;-70
2023/03/10 12:04:43;;;;;;;;;;;;;;;;;;5113655;28;1918;-70
2023/03/10 12:07:12;;;;;;;;;;;;;;;;;;5111804;28;1289;-70
2023/03/10 12:09:45;;;;;;;;;;;;;;;;;;5114070;28;844;-70
2023/03/10 12:12:23;;;;;;;;;;;;;;;;;;5112612;28;1169;-70
2023/03/10 12:14:49;;;;;;;;;;;;;;;;;;5114253;28;950;-70
2023/03/10 12:17:16;;;;;;;;;;;;;;;;;;5113515;28;930;-70
2023/03/10 12:20:00;;;;;;;;;;;;;;;;;;5114031;28;879;-70
2023/03/10 12:22:38;;;;;;;;;;;;;;;;;;5113196;28;1076;-70
2023/03/10 12:25:04;;;;;;;;;;;;;;;;;;5112445;28;1918;-70
2023/03/10 12:27:29;;;;;;;;;;;;;;;;;;5113866;28;903;-70
2023/03/10 12:29:55;;;;;;;;;;;;;;;;;;5112648;28;1162;-70
2023/03/10 12:32:40;;;;;;;;;;;;;;;;;;5113908;28;903;-70
2023/03/10 12:35:24;;;;;;;;;;;;;;;;;;5112848;28;903;-70
2023/03/10 12:38:09;;;;;;;;;;;;;;;;;;5112110;28;1324;-70
2023/03/10 12:40:48;;;;;;;;;;;;;;;;;;5113471;28;995;-70
2023/03/10 12:43:33;;;;;;;;;;;;;;;;;;5113000;28;907;-70
2023/03/10 12:45:59;;;;;;;;;;;;;;;;;;5113047;28;1958;-70
2023/03/10 12:48:25;;;;;;;;;;;;;;;;;;5112424;28;1268;-70
2023/03/10 12:50:56;;;;;;;;;;;;;;;;;;5113471;28;1017;-70
2023/03/10 12:53:42;;;;;;;;;;;;;;;;;;5112178;28;1102;-70
2023/03/10 12:56:10;;;;;;;;;;;;;;;;;;5113575;28;872;-70
2023/03/10 12:58:37;;;;;;;;;;;;;;;;;;5113465;28;907;-70
2023/03/10 13:01:05;;;;;;;;;;;;;;;;;;5112642;28;856;-70
2023/03/10 13:03:45;;;;;;;;;;;;;;;;;;5111339;28;1221;-70
2023/03/10 13:06:11;;;;;;;;;;;;;;;;;;5113555;28;966;-70
2023/03/10 13:08:42;;;;;;;;;;;;;;;;;;5113144;28;856;-70
2023/03/10 13:11:31;;;;;;;;;;;;;;;;;;5112619;28;907;-70
2023/03/10 13:13:58;;;;;;;;;;;;;;;;;;5093061;28;1070;-70
2023/03/10 13:16:23;;;;;;;;;;;;;;;;;;5113097;28;899;-70
2023/03/10 13:18:50;;;;;;;;;;;;;;;;;;5113142;28;994;-70
2023/03/10 13:21:22;;;;;;;;;;;;;;;;;;5113002;28;813;-70
2023/03/10 13:23:48;;;;;;;;;;;;;;;;;;5112684;28;1913;-70
2023/03/10 13:26:14;;;;;;;;;;;;;;;;;;5112391;28;781;-69
2023/03/10 13:28:49;;;;;;;;;;;;;;;;;;5112748;28;903;-69
2023/03/10 13:31:17;;;;;;;;;;;;;;;;;;5112644;28;912;-69
2023/03/10 13:33:42;;;;;;;;;;;;;;;;;;5113455;28;891;-69
2023/03/10 13:36:26;;;;;;;;;;;;;;;;;;5111489;28;907;-69
2023/03/10 13:38:52;;;;;;;;;;;;;;;;;;5111739;28;1197;-69
2023/03/10 13:41:17;;;;;;;;;;;;;;;;;;5111700;28;1036;-69
2023/03/10 13:43:50;;;;;;;;;;;;;;;;;;5113352;28;1894;-70
2023/03/10 13:46:35;;;;;;;;;;;;;;;;;;5113378;28;820;-70
2023/03/10 13:49:05;;;;;;;;;;;;;;;;;;5110681;28;1293;-70
2023/03/10 13:51:31;;;;;;;;;;;;;;;;;;5111958;28;1185;-70
2023/03/10 13:54:09;;;;;;;;;;;;;;;;;;5114574;28;935;-70
2023/03/10 13:56:35;;;;;;;;;;;;;;;;;;5115736;28;1169;-70
2023/03/10 13:59:02;;;;;;;;;;;;;;;;;;5116584;27;835;-70
2023/03/10 14:01:29;;;;;;;;;;;;;;;;;;5114630;28;1040;-70
2023/03/10 14:03:58;;;;;;;;;;;;;;;;;;5115828;27;1961;-70
2023/03/10 14:06:24;;;;;;;;;;;;;;;;;;5116521;28;832;-70
2023/03/10 14:08:50;;;;;;;;;;;;;;;;;;5114738;28;1135;-70
2023/03/10 14:11:22;;;;;;;;;;;;;;;;;;5114999;28;1162;-70
2023/03/10 14:13:47;;;;;;;;;;;;;;;;;;5115294;28;1223;-70
2023/03/10 14:16:12;;;;;;;;;;;;;;;;;;5097705;28;1258;-70
2023/03/10 14:18:39;;;;;;;;;;;;;;;;;;5116618;28;950;-70
2023/03/10 14:21:24;;;;;;;;;;;;;;;;;;5116154;28;876;-70
2023/03/10 14:23:50;;;;;;;;;;;;;;;;;;5115032;28;1949;-70
2023/03/10 14:26:16;;;;;;;;;;;;;;;;;;5114759;28;1149;-70
2023/03/10 14:28:41;;;;;;;;;;;;;;;;;;5114666;28;1205;-70
2023/03/10 14:31:18;;;;;;;;;;;;;;;;;;5114850;28;959;-69
2023/03/10 14:33:44;;;;;;;;;;;;;;;;;;5116152;28;923;-70
2023/03/10 14:36:10;;;;;;;;;;;;;;;;;;5114654;28;1257;-70
2023/03/10 14:38:38;;;;;;;;;;;;;;;;;;5116933;28;859;-70
2023/03/10 14:41:03;;;;;;;;;;;;;;;;;;5114441;28;880;-70
2023/03/10 14:43:29;;;;;;;;;;;;;;;;;;5117044;28;883;-70
2023/03/10 14:45:56;;;;;;;;;;;;;;;;;;5116323;27;1905;-70
2023/03/10 14:48:23;;;;;;;;;;;;;;;;;;5116030;28;875;-70
2023/03/10 14:50:49;;;;;;;;;;;;;;;;;;5116091;28;820;-70
2023/03/10 14:53:16;;;;;;;;;;;;;;;;;;5114443;28;1265;-70
2023/03/10 14:55:43;;;;;;;;;;;;;;;;;;5114139;28;1185;-70
2023/03/10 14:58:29;;;;;;;;;;;;;;;;;;5115397;28;1052;-70
2023/03/10 15:00:54;;;;;;;;;;;;;;;;;;5107903;28;1246;-70
2023/03/10 15:03:20;;;;;;;;;;;;;;;;;;5115103;28;1088;-70
2023/03/10 15:05:46;;;;;;;;;;;;;;;;;;5115360;28;1913;-70
2023/03/10 15:08:11;;;;;;;;;;;;;;;;;;5116253;28;867;-70
2023/03/10 15:10:38;;;;;;;;;;;;;;;;;;5116228;28;754;-70
2023/03/10 15:13:03;;;;;;;;;;;;;;;;;;5115949;28;940;-70
2023/03/10 15:15:36;;;;;;;;;;;;;;;;;;5112642;28;1214;-70
2023/03/10 15:18:01;;;;;;;;;;;;;;;;;;5094177;28;1196;-71
2023/03/10 15:20:26;;;;;;;;;;;;;;;;;;5093782;28;1101;-70
2023/03/10 15:22:52;;;;;;;;;;;;;;;;;;5093840;28;939;-71
2023/03/10 15:25:18;;;;;;;;;;;;;;;;;;5093372;28;1960;-70
2023/03/10 15:27:45;;;;;;;;;;;;;;;;;;5093912;28;1155;-71
2023/03/10 15:30:21;;;;;;;;;;;;;;;;;;5094536;28;836;-71
2023/03/10 15:32:46;;;;;;;;;;;;;;;;;;5094921;28;923;-71
2023/03/10 15:35:12;;;;;;;;;;;;;;;;;;5092802;28;1380;-71
2023/03/10 15:37:37;;;;;;;;;;;;;;;;;;5094716;28;837;-71
2023/03/10 15:40:03;;;;;;;;;;;;;;;;;;5092949;28;845;-71
2023/03/10 15:42:29;;;;;;;;;;;;;;;;;;5094428;28;871;-71
2023/03/10 15:44:54;;;;;;;;;;;;;;;;;;5092956;28;1910;-72
2023/03/10 15:47:19;;;;;;;;;;;;;;;;;;5093040;28;1328;-71
2023/03/10 15:49:44;;;;;;;;;;;;;;;;;;5093075;28;1222;-72
2023/03/10 15:52:10;;;;;;;;;;;;;;;;;;5093281;28;1189;-71
2023/03/10 15:54:35;;;;;;;;;;;;;;;;;;5093079;28;892;-71
2023/03/10 15:57:00;;;;;;;;;;;;;;;;;;5093293;28;820;-71
2023/03/10 15:59:26;;;;;;;;;;;;;;;;;;5093629;28;1142;-71
2023/03/10 16:01:52;;;;;;;;;;;;;;;;;;5094108;28;777;-71
2023/03/10 16:04:17;;;;;;;;;;;;;;;;;;5093286;28;1968;-71
2023/03/10 16:06:43;;;;;;;;;;;;;;;;;;5075583;28;1194;-71
2023/03/10 16:09:08;;;;;;;;;;;;;;;;;;5092638;28;1166;-71
2023/03/10 16:11:34;;;;;;;;;;;;;;;;;;5093671;28;855;-71
2023/03/10 16:13:59;;;;;;;;;;;;;;;;;;5092189;28;1201;-71
2023/03/10 16:16:25;;;;;;;;;;;;;;;;;;5093053;28;938;-71
2023/03/10 16:18:51;;;;;;;;;;;;;;;;;;5093694;28;816;-71
2023/03/10 16:21:17;;;;;;;;;;;;;;;;;;5092368;28;1328;-69
2023/03/10 16:23:42;;;;;;;;;;;;;;;;;;5075810;28;1340;-68
2023/03/10 16:26:12;;;;;;;;;;;;;;;;;;5092174;28;1906;-68
2023/03/10 16:28:47;;;;;;;;;;;;;;;;;;5092102;28;1273;-71
2023/03/10 16:31:14;;;;;;;;;;;;;;;;;;5092523;28;1401;-71
2023/03/10 16:33:43;;;;;;;;;;;;;;;;;;5092492;28;1192;-70
2023/03/10 16:36:11;;;;;;;;;;;;;;;;;;5092679;28;1213;-71
2023/03/10 16:38:37;;;;;;;;;;;;;;;;;;5092208;28;1160;-71
2023/03/10 16:41:02;;;;;;;;;;;;;;;;;;5093013;28;1186;-71
2023/03/10 16:43:28;;;;;;;;;;;;;;;;;;5092113;28;1323;-71
2023/03/10 16:46:03;;;;;;;;;;;;;;;;;;5091290;28;1906;-71
2023/03/10 16:48:28;;;;;;;;;;;;;;;;;;5090777;28;1325;-71
2023/03/10 16:50:54;;;;;;;;;;;;;;;;;;5092240;28;1258;-71
2023/03/10 16:53:19;;;;;;;;;;;;;;;;;;5092807;28;1067;-71
2023/03/10 16:55:44;;;;;;;;;;;;;;;;;;5092219;28;1268;-71
2023/03/10 16:58:10;;;;;;;;;;;;;;;;;;5093546;28;982;-71
2023/03/10 17:00:35;;;;;;;;;;;;;;;;;;5075338;28;1175;-71
2023/03/10 17:03:01;;;;;;;;;;;;;;;;;;5093582;28;1214;-71
2023/03/10 17:05:27;;;;;;;;;;;;;;;;;;5075085;28;1986;-72
2023/03/10 17:07:52;;;;;;;;;;;;;;;;;;5093195;28;837;-71
2023/03/10 17:10:17;;;;;;;;;;;;;;;;;;5075498;28;1174;-71
2023/03/10 17:12:43;;;;;;;;;;;;;;;;;;5092662;28;868;-71
2023/03/10 17:15:08;;;;;;;;;;;;;;;;;;5091846;28;1502;-71